Time;durP1;ratioP1;P1;durP2;ratioP2;P2;SDS_P1;SDS_P2;PMS_P1;PMS_P2;Temp;Humidity;BMP_temperature;BMP_pressure;BME280_temperature;BME280_humidity;BME280_pressure;Samples;Min_cycle;Max_cycle;Signal;HPM_P1;HPM_P2
2023/04/08 00:00:15;;;;;;;9.45;6.82;;;5.30;99.90;;;;;;5112197;27;20455;-70
2023/04/08 00:02:42;;;;;;;8.90;6.60;;;5.30;99.90;;;;;;5112133;27;20043;-72
2023/04/08 00:05:08;;;;;;;10.13;7.32;;;5.30;99.90;;;;;;5109010;27;20039;-68
2023/04/08 00:07:34;;;;;;;8.05;6.68;;;5.20;99.90;;;;;;5113273;27;20094;-66
2023/04/08 00:10:00;;;;;;;8.75;6.35;;;5.20;99.90;;;;;;5115587;27;20039;-66
2023/04/08 00:12:26;;;;;;;9.35;6.68;;;5.20;99.90;;;;;;5115914;27;20099;-68
2023/04/08 00:14:51;;;;;;;8.40;6.90;;;5.10;99.90;;;;;;5115679;27;20435;-68
2023/04/08 00:17:17;;;;;;;9.05;6.72;;;5.10;99.90;;;;;;5115574;27;20080;-69
2023/04/08 00:19:43;;;;;;;9.65;6.80;;;5.10;99.90;;;;;;5115344;27;20077;-68
2023/04/08 00:22:09;;;;;;;7.63;6.28;;;5.10;99.90;;;;;;5115464;27;20046;-71
2023/04/08 00:24:35;;;;;;;9.07;6.47;;;5.10;99.90;;;;;;5115803;27;20039;-69
2023/04/08 00:27:01;;;;;;;8.10;6.35;;;5.10;99.90;;;;;;5115576;27;20095;-68
2023/04/08 00:29:27;;;;;;;9.07;6.32;;;5.00;99.90;;;;;;5098271;27;20047;-67
2023/04/08 00:31:53;;;;;;;7.20;6.50;;;5.00;99.90;;;;;;5115473;27;20043;-67
2023/04/08 00:34:19;;;;;;;8.95;6.20;;;5.00;99.90;;;;;;5115963;27;20046;-68
2023/04/08 00:36:46;;;;;;;8.07;6.47;;;5.00;99.90;;;;;;5115698;27;20074;-68
2023/04/08 00:39:12;;;;;;;7.22;6.13;;;5.00;99.90;;;;;;5115543;27;20045;-66
2023/04/08 00:41:38;;;;;;;8.50;6.55;;;4.90;99.90;;;;;;5115600;27;20066;-67
2023/04/08 00:44:04;;;;;;;7.78;6.43;;;4.90;99.90;;;;;;5115499;27;20082;-70
2023/04/08 00:46:35;;;;;;;9.57;6.72;;;4.90;99.90;;;;;;5115454;27;20454;-66
2023/04/08 00:49:01;;;;;;;8.45;6.30;;;4.90;99.90;;;;;;5111792;28;20055;-67
2023/04/08 00:51:31;;;;;;;8.52;6.13;;;4.90;99.90;;;;;;5113458;28;20036;-70
2023/04/08 00:53:57;;;;;;;7.15;5.97;;;4.80;99.90;;;;;;5111493;28;20142;-69
2023/04/08 00:56:23;;;;;;;8.50;6.28;;;4.80;99.90;;;;;;5112072;28;20111;-71
2023/04/08 00:58:53;;;;;;;8.40;6.80;;;4.80;99.90;;;;;;5111948;28;20047;-68
2023/04/08 01:02:01;;;;;;;8.02;6.47;;;4.80;99.90;;;;;;5094457;28;20047;-66
2023/04/08 01:04:45;;;;;;;9.15;6.72;;;4.80;99.90;;;;;;5111673;28;20032;-68
2023/04/08 01:07:25;;;;;;;9.20;6.53;;;4.70;99.90;;;;;;5111288;28;20038;-68
2023/04/08 01:09:55;;;;;;;8.57;6.88;;;4.70;99.90;;;;;;5111684;28;20088;-67
2023/04/08 01:12:29;;;;;;;10.43;6.80;;;4.70;99.90;;;;;;5111165;28;20153;-68
2023/04/08 01:15:14;;;;;;;12.25;7.30;;;4.70;99.90;;;;;;5111315;27;20096;-69
2023/04/08 01:17:42;;;;;;;9.13;6.90;;;4.70;99.90;;;;;;5094412;28;20043;-72
2023/04/08 01:20:09;;;;;;;8.32;6.45;;;4.60;99.90;;;;;;5110346;28;20172;-66
2023/04/08 01:22:54;;;;;;;8.07;6.32;;;4.60;99.90;;;;;;5111136;28;20031;-68
2023/04/08 01:25:25;;;;;;;9.48;6.30;;;4.60;99.90;;;;;;5110495;28;20039;-66
2023/04/08 01:27:55;;;;;;;8.60;6.78;;;4.60;99.90;;;;;;5108482;28;20044;-69
2023/04/08 01:30:23;;;;;;;8.38;6.70;;;4.60;99.90;;;;;;5110364;28;20051;-69
2023/04/08 01:32:51;;;;;;;10.45;7.57;;;4.60;99.90;;;;;;5110549;28;20200;-68
2023/04/08 01:35:17;;;;;;;8.55;6.53;;;4.50;99.90;;;;;;5110186;28;20047;-67
2023/04/08 01:37:45;;;;;;;9.73;7.07;;;4.50;99.90;;;;;;5110516;28;20182;-70
2023/04/08 01:40:12;;;;;;;8.68;6.75;;;4.50;99.90;;;;;;5110651;28;20132;-68
2023/04/08 01:42:38;;;;;;;9.55;6.85;;;4.50;99.90;;;;;;5110645;28;20492;-70
2023/04/08 01:45:05;;;;;;;8.07;6.65;;;4.40;99.90;;;;;;5092819;28;20379;-67
2023/04/08 01:47:30;;;;;;;9.90;7.13;;;4.40;99.90;;;;;;5110394;28;20047;-70
2023/04/08 01:49:58;;;;;;;9.50;7.00;;;4.40;99.90;;;;;;5110212;28;20080;-69
2023/04/08 01:52:25;;;;;;;10.15;7.55;;;4.40;99.90;;;;;;5110183;28;20470;-67
2023/04/08 01:54:52;;;;;;;10.13;7.30;;;4.30;99.90;;;;;;5110886;28;20462;-69
2023/04/08 01:57:22;;;;;;;9.75;7.35;;;4.30;99.90;;;;;;5110638;28;20050;-67
2023/04/08 01:59:51;;;;;;;10.23;7.00;;;4.30;99.90;;;;;;5110162;28;20035;-69
2023/04/08 02:02:20;;;;;;;13.32;8.63;;;4.20;99.90;;;;;;5109271;28;20086;-67
2023/04/08 02:04:45;;;;;;;9.10;6.90;;;4.20;99.90;;;;;;5110575;28;20114;-67
2023/04/08 02:07:11;;;;;;;8.63;6.88;;;4.10;99.90;;;;;;5110325;28;20126;-69
2023/04/08 02:09:37;;;;;;;10.15;7.57;;;4.10;99.90;;;;;;5110390;28;20063;-68
2023/04/08 02:12:03;;;;;;;10.85;7.65;;;4.10;99.90;;;;;;5093644;28;20050;-65
2023/04/08 02:14:29;;;;;;;8.52;6.88;;;4.10;99.90;;;;;;5110258;28;20048;-69
2023/04/08 02:17:13;;;;;;;10.48;7.07;;;4.10;99.90;;;;;;5110160;28;20035;-68
2023/04/08 02:19:44;;;;;;;10.23;7.82;;;4.10;99.90;;;;;;5110272;28;20036;-66
2023/04/08 02:22:45;;;;;;;11.40;8.13;;;4.00;99.90;;;;;;5093365;28;20042;-70
2023/04/08 02:25:15;;;;;;;9.23;7.72;;;4.00;99.90;;;;;;5011944;28;20045;-67
2023/04/08 02:27:42;;;;;;;9.82;7.55;;;4.00;99.90;;;;;;4994543;28;20099;-67
2023/04/08 02:30:10;;;;;;;12.30;8.15;;;4.00;99.90;;;;;;5011361;28;20048;-66
2023/04/08 02:32:36;;;;;;;9.50;7.85;;;4.00;99.90;;;;;;5011110;28;20049;-68
2023/04/08 02:35:03;;;;;;;10.52;8.10;;;3.90;99.90;;;;;;5011764;28;20045;-70
2023/04/08 02:37:30;;;;;;;11.23;8.05;;;3.90;99.90;;;;;;5011736;28;20243;-70
2023/04/08 02:39:56;;;;;;;10.32;7.82;;;3.90;99.90;;;;;;5011828;28;20041;-70
2023/04/08 02:42:22;;;;;;;12.10;7.95;;;3.90;99.90;;;;;;5011868;28;20049;-66
2023/04/08 02:44:47;;;;;;;11.10;7.97;;;3.80;99.90;;;;;;5044738;28;20072;-70
2023/04/08 02:47:13;;;;;;;11.82;8.23;;;3.80;99.90;;;;;;5011786;28;20061;-67
2023/04/08 02:49:39;;;;;;;11.75;8.45;;;3.70;99.90;;;;;;5011436;28;20846;-67
2023/04/08 02:52:05;;;;;;;9.82;8.13;;;3.70;99.90;;;;;;5008831;28;20033;-68
2023/04/08 02:54:30;;;;;;;11.68;8.50;;;3.70;99.90;;;;;;5009794;28;20049;-69
2023/04/08 02:56:56;;;;;;;10.40;7.68;;;3.60;99.90;;;;;;5011607;28;20114;-68
2023/04/08 02:59:22;;;;;;;10.98;7.95;;;3.60;99.90;;;;;;4994891;28;20056;-70
2023/04/08 03:01:47;;;;;;;9.98;8.07;;;3.60;99.90;;;;;;5046186;28;20043;-66
2023/04/08 03:04:13;;;;;;;11.85;7.80;;;3.60;99.90;;;;;;5109813;28;20095;-65
2023/04/08 03:06:39;;;;;;;11.55;8.27;;;3.50;99.90;;;;;;5109378;28;20043;-65
2023/04/08 03:09:04;;;;;;;10.85;8.52;;;3.50;99.90;;;;;;5109417;28;20061;-67
2023/04/08 03:11:30;;;;;;;12.00;7.82;;;3.50;99.90;;;;;;5092096;28;20091;-68
2023/04/08 03:13:56;;;;;;;12.13;8.70;;;3.40;99.90;;;;;;5109479;28;20091;-66
2023/04/08 03:16:22;;;;;;;9.45;7.40;;;3.40;99.90;;;;;;5109641;28;20046;-67
2023/04/08 03:18:50;;;;;;;10.70;7.50;;;3.40;99.90;;;;;;5105587;28;20047;-68
2023/04/08 03:21:15;;;;;;;11.35;7.93;;;3.40;99.90;;;;;;5109167;28;20088;-69
2023/04/08 03:23:41;;;;;;;10.82;8.30;;;3.30;99.90;;;;;;5108774;28;20505;-70
2023/04/08 03:26:07;;;;;;;10.98;8.82;;;3.30;99.90;;;;;;5108843;28;20040;-68
2023/04/08 03:28:32;;;;;;;12.95;8.77;;;3.20;99.90;;;;;;5109241;28;20039;-68
2023/04/08 03:30:59;;;;;;;11.50;8.88;;;3.20;99.90;;;;;;5108659;28;20035;-70
2023/04/08 03:33:25;;;;;;;9.93;7.85;;;3.20;99.90;;;;;;5109434;28;20070;-68
2023/04/08 03:35:52;;;;;;;11.70;9.30;;;3.10;99.90;;;;;;5108675;28;20071;-66
2023/04/08 03:38:18;;;;;;;10.50;8.88;;;3.10;99.90;;;;;;5109422;28;20052;-68
2023/04/08 03:40:43;;;;;;;12.02;9.65;;;3.10;99.90;;;;;;5108915;28;20055;-68
2023/04/08 03:43:10;;;;;;;12.10;10.00;;;3.10;99.90;;;;;;5110793;28;20390;-68
2023/04/08 03:45:36;;;;;;;12.00;9.05;;;3.10;99.90;;;;;;5112745;28;20442;-69
2023/04/08 03:48:02;;;;;;;13.50;10.50;;;3.00;99.90;;;;;;5112592;28;20172;-69
2023/04/08 03:50:28;;;;;;;13.18;9.90;;;3.10;99.90;;;;;;5112468;28;20051;-69
2023/04/08 03:52:53;;;;;;;12.25;10.18;;;3.10;99.90;;;;;;5113529;28;20226;-70
2023/04/08 03:55:19;;;;;;;13.98;9.98;;;3.00;99.90;;;;;;5112392;28;20047;-67
2023/04/08 03:57:45;;;;;;;11.75;9.25;;;3.00;99.90;;;;;;5113300;28;20466;-66
2023/04/08 04:00:11;;;;;;;13.05;9.80;;;3.00;99.90;;;;;;5095613;28;20044;-66
2023/04/08 04:02:36;;;;;;;13.43;9.63;;;3.00;99.90;;;;;;5112812;28;20088;-68
2023/04/08 04:05:02;;;;;;;14.82;10.18;;;3.00;99.90;;;;;;5112399;28;20036;-69
2023/04/08 04:07:28;;;;;;;12.70;10.50;;;3.00;99.90;;;;;;5113065;27;20031;-68
2023/04/08 04:09:55;;;;;;;13.93;10.18;;;3.00;99.90;;;;;;5095788;28;20084;-70
2023/04/08 04:12:22;;;;;;;14.75;11.13;;;2.90;99.90;;;;;;5112737;28;20043;-66
2023/04/08 04:14:47;;;;;;;13.98;10.68;;;2.90;99.90;;;;;;5112794;28;20039;-70
2023/04/08 04:17:13;;;;;;;15.95;10.70;;;2.90;99.90;;;;;;5112404;28;20066;-69
2023/04/08 04:19:39;;;;;;;13.65;10.68;;;2.90;99.90;;;;;;5112645;28;20106;-67
2023/04/08 04:22:05;;;;;;;13.23;10.63;;;2.90;99.90;;;;;;5112352;28;20081;-68
2023/04/08 04:24:30;;;;;;;15.38;10.68;;;2.80;99.90;;;;;;5112456;28;20046;-65
2023/04/08 04:26:56;;;;;;;14.23;10.60;;;2.80;99.90;;;;;;5095197;28;20051;-68
2023/04/08 04:29:21;;;;;;;18.55;11.40;;;2.80;99.90;;;;;;5112167;27;20089;-66
2023/04/08 04:31:47;;;;;;;14.68;10.75;;;2.80;99.90;;;;;;5112448;28;20519;-68
2023/04/08 04:34:13;;;;;;;15.40;11.50;;;2.80;99.90;;;;;;5113484;28;20155;-68
2023/04/08 04:36:38;;;;;;;14.88;11.35;;;2.70;99.90;;;;;;5112241;28;20073;-69
2023/04/08 04:39:04;;;;;;;13.63;11.00;;;2.70;99.90;;;;;;5112062;28;20043;-72
2023/04/08 04:41:30;;;;;;;13.38;11.00;;;2.70;99.90;;;;;;5111968;28;20088;-67
2023/04/08 04:43:55;;;;;;;14.13;11.30;;;2.70;99.90;;;;;;5112071;28;20032;-67
2023/04/08 04:46:21;;;;;;;14.70;11.48;;;2.70;99.90;;;;;;5112017;28;20063;-69
2023/04/08 04:48:47;;;;;;;13.82;11.18;;;2.70;99.90;;;;;;5114108;27;20110;-67
2023/04/08 04:51:12;;;;;;;16.58;11.63;;;2.70;99.90;;;;;;5115124;27;20115;-70
2023/04/08 04:53:38;;;;;;;15.40;11.88;;;2.70;99.90;;;;;;5114632;28;20579;-65
2023/04/08 04:56:04;;;;;;;15.45;12.32;;;2.70;99.90;;;;;;5115171;27;20493;-66
2023/04/08 04:58:30;;;;;;;16.70;12.23;;;2.70;99.90;;;;;;5115080;27;20046;-67
2023/04/08 05:00:56;;;;;;;17.70;13.30;;;2.80;99.90;;;;;;5115027;27;20058;-69
2023/04/08 05:03:21;;;;;;;17.60;13.13;;;2.70;99.90;;;;;;5115014;27;20039;-68
2023/04/08 05:05:52;;;;;;;16.48;12.43;;;2.80;99.90;;;;;;5115207;27;20073;-67
2023/04/08 05:08:17;;;;;;;16.65;13.00;;;2.80;99.90;;;;;;5114682;27;20039;-69
2023/04/08 05:10:43;;;;;;;19.55;13.40;;;2.80;99.90;;;;;;5111288;27;20179;-67
2023/04/08 05:13:09;;;;;;;18.27;13.00;;;2.80;99.90;;;;;;5114429;27;20031;-69
2023/04/08 05:15:35;;;;;;;18.08;13.80;;;2.80;99.90;;;;;;5114447;27;20039;-67
2023/04/08 05:18:00;;;;;;;16.77;12.98;;;2.90;99.90;;;;;;5132972;27;20027;-68
2023/04/08 05:20:26;;;;;;;19.25;13.88;;;2.90;99.90;;;;;;5096847;27;20039;-69
2023/04/08 05:22:51;;;;;;;19.02;13.80;;;3.00;99.90;;;;;;5114653;27;20038;-68
2023/04/08 05:25:17;;;;;;;18.90;14.38;;;3.00;99.90;;;;;;5113991;27;20120;-66
2023/04/08 05:27:43;;;;;;;18.73;14.35;;;3.10;99.90;;;;;;5113878;27;20047;-71
2023/04/08 05:30:09;;;;;;;18.52;14.35;;;3.10;99.90;;;;;;5097127;27;20489;-69
2023/04/08 05:32:35;;;;;;;18.27;14.13;;;3.10;99.90;;;;;;5113912;27;20050;-69
2023/04/08 05:35:04;;;;;;;19.77;13.90;;;3.20;99.90;;;;;;5114593;27;20023;-70
2023/04/08 05:37:30;;;;;;;20.30;14.65;;;3.20;99.90;;;;;;5096130;27;20055;-67
2023/04/08 05:39:55;;;;;;;19.58;14.27;;;3.30;99.90;;;;;;5114251;27;20501;-65
2023/04/08 05:42:21;;;;;;;19.05;14.68;;;3.30;99.90;;;;;;5114101;27;20123;-67
2023/04/08 05:44:47;;;;;;;20.60;14.70;;;3.40;99.90;;;;;;5114046;27;20039;-69
2023/04/08 05:47:13;;;;;;;19.85;15.52;;;3.50;99.90;;;;;;5113792;27;20050;-68
2023/04/08 05:49:39;;;;;;;20.15;15.75;;;3.50;99.90;;;;;;5113452;27;20518;-69
2023/04/08 05:52:05;;;;;;;19.30;15.60;;;3.60;99.90;;;;;;5114039;27;20482;-68
2023/04/08 05:54:31;;;;;;;20.33;15.35;;;3.60;99.90;;;;;;5096091;27;20054;-68
2023/04/08 05:56:57;;;;;;;18.75;15.43;;;3.60;99.90;;;;;;5112926;27;20385;-67
2023/04/08 05:59:23;;;;;;;24.30;16.30;;;3.70;99.90;;;;;;5108779;27;20077;-69
2023/04/08 06:01:48;;;;;;;19.25;15.60;;;3.80;99.90;;;;;;5113605;27;20090;-69
2023/04/08 06:04:16;;;;;;;19.67;14.82;;;3.80;99.90;;;;;;5113492;27;20095;-67
2023/04/08 06:06:42;;;;;;;18.85;15.10;;;4.00;99.90;;;;;;5113013;27;20089;-69
2023/04/08 06:09:08;;;;;;;18.98;14.85;;;4.10;99.90;;;;;;5113533;27;20073;-68
2023/04/08 06:11:34;;;;;;;20.38;16.25;;;4.20;99.90;;;;;;5113286;27;20114;-68
2023/04/08 06:14:00;;;;;;;20.20;14.90;;;4.30;99.90;;;;;;5096328;27;20115;-66
2023/04/08 06:16:26;;;;;;;19.90;15.32;;;4.30;99.90;;;;;;5113228;27;20121;-69
2023/04/08 06:18:52;;;;;;;21.95;16.15;;;4.30;99.90;;;;;;5113100;27;20035;-68
2023/04/08 06:21:17;;;;;;;21.77;16.35;;;4.40;99.90;;;;;;5112894;27;20055;-69
2023/04/08 06:23:43;;;;;;;20.55;15.80;;;4.40;99.90;;;;;;5113058;27;20447;-65
2023/04/08 06:26:09;;;;;;;20.90;15.75;;;4.40;99.90;;;;;;5113210;27;20113;-70
2023/04/08 06:28:34;;;;;;;19.17;15.55;;;4.40;99.90;;;;;;5113008;27;20051;-70
2023/04/08 06:31:00;;;;;;;20.10;15.70;;;4.50;99.90;;;;;;5112372;27;20039;-69
2023/04/08 06:33:26;;;;;;;20.83;15.52;;;4.50;99.90;;;;;;5113151;27;20078;-68
2023/04/08 06:36:00;;;;;;;23.17;16.33;;;4.60;99.90;;;;;;5113127;27;20050;-68
2023/04/08 06:38:26;;;;;;;22.05;16.70;;;4.60;99.90;;;;;;5112867;27;20042;-68
2023/04/08 06:40:51;;;;;;;25.65;17.35;;;4.70;99.90;;;;;;5112900;27;20053;-70
2023/04/08 06:43:17;;;;;;;23.85;18.25;;;4.80;99.90;;;;;;5113124;27;20510;-67
2023/04/08 06:45:43;;;;;;;24.75;16.92;;;4.90;99.90;;;;;;5112722;27;20077;-69
2023/04/08 06:48:08;;;;;;;23.75;17.60;;;4.90;99.90;;;;;;5108415;27;20038;-69
2023/04/08 06:50:34;;;;;;;22.20;16.85;;;5.00;99.90;;;;;;5112563;27;20055;-68
2023/04/08 06:53:00;;;;;;;25.45;17.95;;;5.10;99.90;;;;;;5112459;27;20096;-70
2023/04/08 06:55:26;;;;;;;23.67;17.88;;;5.10;99.90;;;;;;5112722;27;20027;-67
2023/04/08 06:57:51;;;;;;;26.42;17.63;;;5.20;99.90;;;;;;5095819;27;20538;-72
2023/04/08 07:00:17;;;;;;;22.88;17.25;;;5.30;99.90;;;;;;5112676;27;20062;-66
2023/04/08 07:02:43;;;;;;;24.67;17.75;;;5.30;99.90;;;;;;5112504;27;20035;-70
2023/04/08 07:05:09;;;;;;;24.05;18.17;;;5.40;99.90;;;;;;5109472;27;20046;-69
2023/04/08 07:07:35;;;;;;;23.45;17.38;;;5.40;99.90;;;;;;5112601;27;20050;-69
2023/04/08 07:10:00;;;;;;;21.02;16.13;;;5.50;99.90;;;;;;5112671;27;20470;-70
2023/04/08 07:12:26;;;;;;;25.45;18.20;;;5.50;99.90;;;;;;5112954;28;20421;-68
2023/04/08 07:14:52;;;;;;;24.45;18.02;;;5.60;99.90;;;;;;5113082;27;20050;-69
2023/04/08 07:17:18;;;;;;;22.33;16.80;;;5.60;99.90;;;;;;5113738;27;20043;-69
2023/04/08 07:19:44;;;;;;;22.05;17.50;;;5.70;99.90;;;;;;5099628;27;20485;-70
2023/04/08 07:22:09;;;;;;;22.30;17.23;;;5.70;99.90;;;;;;5117262;27;20185;-69
2023/04/08 07:24:35;;;;;;;24.55;18.00;;;5.80;99.90;;;;;;5116968;27;20046;-67
2023/04/08 07:27:01;;;;;;;28.50;19.05;;;5.90;99.90;;;;;;5099216;27;20050;-69
2023/04/08 07:29:26;;;;;;;26.52;18.48;;;5.90;99.90;;;;;;5099925;27;20043;-68
2023/04/08 07:31:52;;;;;;;24.10;17.80;;;6.00;99.90;;;;;;5116925;27;20465;-66
2023/04/08 07:34:18;;;;;;;23.88;17.88;;;6.10;99.90;;;;;;5116646;27;20415;-68
2023/04/08 07:36:44;;;;;;;26.05;18.25;;;6.10;99.90;;;;;;5116472;27;20068;-68
2023/04/08 07:39:10;;;;;;;26.23;18.65;;;6.20;99.90;;;;;;5116551;27;20047;-67
2023/04/08 07:41:35;;;;;;;25.65;18.95;;;6.40;99.90;;;;;;5116659;27;20168;-70
2023/04/08 07:44:01;;;;;;;27.08;19.33;;;6.40;99.90;;;;;;5116612;27;20035;-69
2023/04/08 07:46:27;;;;;;;25.50;19.35;;;6.60;99.90;;;;;;5116718;27;20035;-67
2023/04/08 07:48:52;;;;;;;27.67;19.58;;;6.70;99.90;;;;;;5116615;27;20043;-70
2023/04/08 07:51:18;;;;;;;25.52;19.52;;;6.80;99.90;;;;;;5116296;27;20129;-67
2023/04/08 07:53:44;;;;;;;25.85;18.95;;;6.90;99.90;;;;;;5116426;27;20497;-69
2023/04/08 07:56:14;;;;;;;25.30;19.15;;;7.00;99.90;;;;;;5116064;27;20042;-66
2023/04/08 07:58:40;;;;;;;26.95;19.50;;;7.30;99.90;;;;;;5116718;27;20534;-69
2023/04/08 08:01:20;;;;;;;27.52;19.95;;;7.50;99.90;;;;;;5116174;27;20039;-67
2023/04/08 08:03:50;;;;;;;26.35;19.08;;;7.70;99.90;;;;;;5116350;27;20058;-70
2023/04/08 08:06:16;;;;;;;25.60;18.67;;;8.00;99.90;;;;;;5116060;27;20078;-66
2023/04/08 08:08:42;;;;;;;25.42;18.73;;;8.20;99.90;;;;;;5115999;27;20027;-69
2023/04/08 08:11:07;;;;;;;24.85;19.50;;;8.30;99.90;;;;;;5098846;27;20039;-66
2023/04/08 08:13:33;;;;;;;26.00;18.98;;;8.50;99.90;;;;;;5116034;27;20041;-69
2023/04/08 08:15:59;;;;;;;25.77;18.98;;;8.70;99.90;;;;;;5115856;27;20061;-66
2023/04/08 08:18:25;;;;;;;21.73;16.75;;;9.00;99.90;;;;;;5115989;27;20367;-69
2023/04/08 08:20:51;;;;;;;24.33;18.02;;;9.30;99.90;;;;;;5116248;27;20043;-68
2023/04/08 08:23:17;;;;;;;21.02;16.88;;;9.60;99.90;;;;;;5115579;27;20050;-68
2023/04/08 08:25:42;;;;;;;21.73;16.77;;;9.80;99.90;;;;;;5098668;27;20110;-69
2023/04/08 08:28:08;;;;;;;20.90;15.18;;;10.00;99.90;;;;;;5115391;27;20050;-67
2023/04/08 08:30:34;;;;;;;18.90;15.38;;;10.20;99.90;;;;;;5115521;27;20043;-69
2023/04/08 08:33:00;;;;;;;20.42;14.55;;;10.40;99.90;;;;;;5115696;27;20027;-66
2023/04/08 08:35:25;;;;;;;14.32;12.80;;;10.50;99.90;;;;;;5115592;27;20071;-69
2023/04/08 08:37:51;;;;;;;17.15;13.73;;;10.70;99.90;;;;;;5116066;27;20027;-70
2023/04/08 08:40:17;;;;;;;17.50;13.30;;;10.80;99.90;;;;;;5115578;27;20038;-68
2023/04/08 08:42:52;;;;;;;13.98;11.82;;;10.90;99.90;;;;;;5115703;27;20050;-67
2023/04/08 08:45:19;;;;;;;14.13;12.55;;;10.90;99.90;;;;;;5115342;27;20389;-70
2023/04/08 08:47:45;;;;;;;14.15;11.50;;;11.10;99.90;;;;;;5115683;27;20047;-70
2023/04/08 08:50:12;;;;;;;13.38;11.60;;;11.10;99.90;;;;;;5114397;27;20051;-69
2023/04/08 08:52:37;;;;;;;14.38;12.18;;;11.20;99.90;;;;;;5148686;27;20083;-68
2023/04/08 08:55:03;;;;;;;14.23;12.05;;;11.20;99.90;;;;;;5154145;27;20066;-67
2023/04/08 08:57:29;;;;;;;16.08;12.93;;;11.20;99.90;;;;;;5124803;27;20053;-70
2023/04/08 08:59:55;;;;;;;14.77;12.90;;;11.20;99.90;;;;;;5097571;27;20130;-69
2023/04/08 09:02:27;;;;;;;12.50;11.20;;;11.10;99.90;;;;;;5114694;27;20049;-68
2023/04/08 09:05:03;;;;;;;17.47;12.53;;;11.20;99.90;;;;;;5114837;27;20122;-68
2023/04/08 09:07:33;;;;;;;13.75;11.50;;;11.50;99.90;;;;;;5114458;27;20047;-69
2023/04/08 09:09:59;;;;;;;14.73;12.85;;;11.80;99.90;;;;;;5114713;27;20057;-66
2023/04/08 09:12:30;;;;;;;15.88;13.45;;;12.00;99.90;;;;;;5114400;27;20027;-68
2023/04/08 09:15:11;;;;;;;15.77;13.35;;;12.00;99.90;;;;;;5097279;27;20166;-69
2023/04/08 09:17:38;;;;;;;16.10;14.30;;;12.00;99.90;;;;;;5114529;27;20046;-69
2023/04/08 09:20:10;;;;;;;15.45;13.32;;;11.90;99.90;;;;;;5114602;27;20047;-71
2023/04/08 09:22:55;;;;;;;16.02;13.95;;;11.80;99.90;;;;;;5113715;27;20093;-67
2023/04/08 09:25:31;;;;;;;15.77;13.70;;;11.90;99.90;;;;;;5114683;27;20611;-70
2023/04/08 09:27:58;;;;;;;15.30;13.52;;;12.00;99.90;;;;;;5097030;27;20078;-67
2023/04/08 09:30:25;;;;;;;16.83;14.13;;;12.00;99.90;;;;;;5148448;27;20082;-72
2023/04/08 09:32:55;;;;;;;16.10;13.73;;;12.00;99.90;;;;;;5114569;27;20035;-69
2023/04/08 09:35:22;;;;;;;16.80;13.70;;;12.20;99.90;;;;;;5097110;27;20154;-68
2023/04/08 09:37:49;;;;;;;13.93;12.40;;;12.20;99.90;;;;;;5114633;27;20397;-71
2023/04/08 09:40:16;;;;;;;15.32;13.65;;;12.20;99.90;;;;;;5113772;27;20118;-71
2023/04/08 09:42:49;;;;;;;16.88;13.68;;;12.40;99.90;;;;;;5114445;27;20121;-69
2023/04/08 09:45:16;;;;;;;14.70;13.15;;;12.60;99.90;;;;;;5114144;27;20043;-70
2023/04/08 09:48:07;;;;;;;14.63;13.13;;;12.90;99.90;;;;;;5114087;27;20035;-68
2023/04/08 09:50:38;;;;;;;15.13;13.48;;;13.00;99.90;;;;;;5113928;27;20413;-66
2023/04/08 09:53:14;;;;;;;15.32;13.23;;;13.10;99.90;;;;;;5113632;27;20039;-68
2023/04/08 09:55:45;;;;;;;14.05;12.10;;;12.80;99.90;;;;;;5113757;27;20039;-68
2023/04/08 09:58:16;;;;;;;13.82;12.30;;;12.80;99.90;;;;;;5113853;27;20078;-67
2023/04/08 10:00:49;;;;;;;13.88;12.45;;;13.10;99.90;;;;;;5113804;27;20451;-70
2023/04/08 10:03:27;;;;;;;13.70;12.30;;;13.30;99.90;;;;;;5113944;27;20043;-71
2023/04/08 10:05:55;;;;;;;13.35;12.05;;;13.50;99.90;;;;;;5114158;27;20031;-70
2023/04/08 10:08:22;;;;;;;14.30;12.43;;;13.30;99.90;;;;;;5113858;27;20450;-68
2023/04/08 10:10:48;;;;;;;13.73;12.18;;;13.50;99.90;;;;;;5113468;27;20035;-71
2023/04/08 10:13:14;;;;;;;14.52;12.07;;;13.70;99.90;;;;;;5113835;27;20050;-70
2023/04/08 10:15:42;;;;;;;13.52;12.10;;;13.90;99.90;;;;;;5113696;27;20118;-69
2023/04/08 10:18:11;;;;;;;13.48;12.00;;;14.00;99.90;;;;;;5114022;27;20053;-69
2023/04/08 10:20:36;;;;;;;13.45;11.60;;;14.00;99.90;;;;;;5124370;27;20381;-69
2023/04/08 10:23:06;;;;;;;13.10;11.38;;;14.20;99.90;;;;;;5134291;27;20500;-68
2023/04/08 10:25:36;;;;;;;12.75;11.40;;;14.20;99.90;;;;;;5117124;27;20046;-71
2023/04/08 10:28:15;;;;;;;13.45;12.15;;;14.20;99.90;;;;;;5133921;27;20072;-69
2023/04/08 10:30:43;;;;;;;13.43;12.02;;;14.40;99.90;;;;;;5133877;27;20095;-68
2023/04/08 10:33:19;;;;;;;12.38;10.95;;;14.10;99.90;;;;;;5134014;27;20038;-71
2023/04/08 10:35:52;;;;;;;13.40;12.00;;;14.20;99.90;;;;;;5133704;27;20068;-72
2023/04/08 10:38:18;;;;;;;;;;;13.90;99.90;;;;;;5116901;27;20103;-70
2023/04/08 10:40:44;;;;;;;12.98;11.40;;;14.00;99.90;;;;;;5168931;27;20276;-68
2023/04/08 10:43:12;;;;;;;13.02;11.73;;;14.20;99.90;;;;;;5104729;27;20042;-70
2023/04/08 10:45:39;;;;;;;12.93;11.60;;;14.30;99.90;;;;;;5112185;27;20050;-68
2023/04/08 10:48:24;;;;;;;13.38;11.98;;;14.30;99.90;;;;;;5112614;27;20042;-70
2023/04/08 10:50:58;;;;;;;13.70;11.77;;;14.60;99.90;;;;;;5145875;27;20053;-68
2023/04/08 10:53:32;;;;;;;13.65;12.02;;;14.60;99.90;;;;;;5112202;27;20481;-67
2023/04/08 10:56:15;;;;;;;13.82;12.43;;;14.60;99.90;;;;;;5112703;27;20500;-65
2023/04/08 10:58:58;;;;;;;13.40;11.85;;;14.50;99.90;;;;;;5094351;27;20076;-70
2023/04/08 11:01:23;;;;;;;14.00;12.15;;;14.20;99.90;;;;;;5112802;27;20066;-70
2023/04/08 11:03:50;;;;;;;14.13;12.60;;;14.20;99.90;;;;;;5114073;27;20043;-73
2023/04/08 11:06:16;;;;;;;13.60;11.73;;;14.40;99.90;;;;;;5100958;27;20055;-70
2023/04/08 11:08:43;;;;;;;14.07;12.02;;;14.70;99.90;;;;;;5133071;27;20027;-71
2023/04/08 11:11:10;;;;;;;13.18;11.88;;;15.00;99.90;;;;;;5132882;27;20031;-69
2023/04/08 11:13:41;;;;;;;13.20;11.80;;;15.40;99.90;;;;;;5133112;27;20066;-67
2023/04/08 11:16:08;;;;;;;13.77;12.20;;;15.60;99.90;;;;;;5125592;28;20127;-66
2023/04/08 11:18:34;;;;;;;13.82;12.23;;;15.70;99.90;;;;;;5112327;27;20167;-68
2023/04/08 11:21:03;;;;;;;13.85;12.45;;;15.90;99.90;;;;;;5112646;28;20043;-70
2023/04/08 11:23:28;;;;;;;14.52;12.60;;;16.10;99.90;;;;;;5112355;27;20043;-70
2023/04/08 11:25:55;;;;;;;12.80;11.50;;;16.20;99.90;;;;;;5112476;27;20054;-69
2023/04/08 11:28:21;;;;;;;13.30;11.23;;;16.20;99.90;;;;;;5130794;27;20039;-70
2023/04/08 11:30:47;;;;;;;15.18;11.43;;;16.30;99.90;;;;;;5112361;27;20041;-69
2023/04/08 11:33:13;;;;;;;12.02;10.82;;;16.50;99.90;;;;;;5120958;27;20031;-69
2023/04/08 11:35:43;;;;;;;12.85;11.43;;;16.40;99.90;;;;;;5132068;27;20074;-71
2023/04/08 11:38:11;;;;;;;11.55;10.25;;;16.70;99.90;;;;;;5122525;28;20522;-67
2023/04/08 11:40:37;;;;;;;11.25;9.95;;;16.90;99.90;;;;;;5112166;28;20469;-71
2023/04/08 11:43:10;;;;;;;11.50;10.10;;;17.20;99.90;;;;;;5111748;28;20031;-67
2023/04/08 11:45:40;;;;;;;12.38;10.20;;;17.50;99.90;;;;;;5093963;27;20047;-67
2023/04/08 11:48:14;;;;;;;10.20;9.20;;;17.80;99.90;;;;;;5094681;27;20045;-69
2023/04/08 11:50:41;;;;;;;9.77;8.77;;;18.10;99.90;;;;;;5111788;27;20135;-69
2023/04/08 11:53:20;;;;;;;10.07;9.07;;;18.20;99.90;;;;;;5111518;28;20035;-65
2023/04/08 11:55:47;;;;;;;10.95;9.85;;;17.90;99.90;;;;;;5112093;28;20039;-69
2023/04/08 11:58:13;;;;;;;10.68;9.57;;;17.40;99.90;;;;;;5111769;28;20074;-67
2023/04/08 12:00:39;;;;;;;12.13;10.13;;;17.20;99.90;;;;;;5145835;27;20042;-69
2023/04/08 12:03:06;;;;;;;10.65;9.63;;;17.00;99.90;;;;;;5096524;27;20031;-70
2023/04/08 12:05:32;;;;;;;9.75;8.85;;;16.70;99.90;;;;;;5113576;27;20093;-70
2023/04/08 12:07:57;;;;;;;9.52;8.63;;;16.50;99.90;;;;;;5129738;27;20400;-67
2023/04/08 12:10:26;;;;;;;9.85;8.88;;;16.50;99.90;;;;;;5115891;27;20441;-68
2023/04/08 12:12:51;;;;;;;8.40;7.55;;;16.40;99.90;;;;;;5115329;27;20400;-66
2023/04/08 12:15:17;;;;;;;9.35;8.45;;;16.40;99.90;;;;;;5115861;27;20031;-67
2023/04/08 12:17:44;;;;;;;9.27;8.38;;;16.30;99.90;;;;;;5114941;27;20070;-69
2023/04/08 12:20:11;;;;;;;8.98;8.10;;;16.40;99.90;;;;;;5121303;27;20125;-67
2023/04/08 12:22:37;;;;;;;8.70;7.80;;;16.40;99.90;;;;;;5120215;27;20063;-66
2023/04/08 12:25:03;;;;;;;9.20;8.20;;;16.50;99.90;;;;;;5116738;27;20061;-65
2023/04/08 12:27:32;;;;;;;8.02;7.22;;;16.60;99.90;;;;;;5099238;27;20043;-65
2023/04/08 12:29:58;;;;;;;8.85;7.53;;;16.50;99.90;;;;;;5115988;27;20493;-65
2023/04/08 12:32:24;;;;;;;7.85;7.05;;;16.70;99.90;;;;;;5134817;27;20517;-70
2023/04/08 12:34:50;;;;;;;8.00;7.20;;;16.80;99.90;;;;;;5114543;27;20099;-64
2023/04/08 12:37:16;;;;;;;8.63;7.80;;;16.90;99.90;;;;;;5117504;27;20043;-66
2023/04/08 12:39:42;;;;;;;7.82;7.03;;;17.00;99.90;;;;;;5116312;27;20445;-64
2023/04/08 12:42:08;;;;;;;8.18;7.38;;;17.10;99.90;;;;;;5115273;27;20443;-67